Time;durP1;ratioP1;P1;durP2;ratioP2;P2;SDS_P1;SDS_P2;PMS_P1;PMS_P2;Temp;Humidity;BMP_temperature;BMP_pressure;BME280_temperature;BME280_humidity;BME280_pressure;Samples;Min_cycle;Max_cycle;Signal;HPM_P1;HPM_P2
2023/12/16 00:00:27;;;;;;;0.30;0.30;;;;;;;5.74;100.00;101604.59;5089569;28;20050;-59
2023/12/16 00:02:54;;;;;;;0.40;0.40;;;;;;;5.80;100.00;101600.50;5100149;28;20498;-58
2023/12/16 00:05:22;;;;;;;0.40;0.40;;;;;;;5.78;100.00;101595.31;5096071;28;20564;-59
2023/12/16 00:07:49;;;;;;;0.40;0.40;;;;;;;5.74;100.00;101601.94;5094199;28;20054;-58
2023/12/16 00:10:27;;;;;;;0.30;0.30;;;;;;;5.77;100.00;101609.63;5124473;27;20172;-60
2023/12/16 00:12:54;;;;;;;0.40;0.40;;;;;;;5.76;100.00;101617.75;5109632;28;20109;-60
2023/12/16 00:15:21;;;;;;;0.30;0.30;;;;;;;5.82;100.00;101612.66;5100536;28;20122;-60
2023/12/16 00:17:48;;;;;;;0.45;0.45;;;;;;;5.84;100.00;101610.69;5107143;28;20039;-60
2023/12/16 00:20:15;;;;;;;0.30;0.30;;;;;;;5.82;100.00;101617.97;5108052;28;20048;-61
2023/12/16 00:22:44;;;;;;;0.50;0.50;;;;;;;5.87;98.98;101632.66;5094049;28;20043;-58
2023/12/16 00:25:11;;;;;;;0.40;0.40;;;;;;;5.90;99.67;101643.81;5099704;28;20039;-58
2023/12/16 00:27:40;;;;;;;0.40;0.40;;;;;;;5.88;100.00;101636.97;5095337;28;20131;-58
2023/12/16 00:30:09;;;;;;;0.45;0.45;;;;;;;5.84;100.00;101636.44;5103772;28;20075;-58
2023/12/16 00:32:39;;;;;;;0.38;0.38;;;;;;;5.81;100.00;101632.25;5109898;28;20134;-60
2023/12/16 00:35:07;;;;;;;0.40;0.40;;;;;;;5.70;100.00;101629.84;5092450;28;20461;-60
2023/12/16 00:37:34;;;;;;;0.40;0.40;;;;;;;5.67;100.00;101638.13;5094111;28;20039;-58
2023/12/16 00:40:02;;;;;;;0.30;0.30;;;;;;;5.70;100.00;101629.84;5093225;28;20116;-60
2023/12/16 00:42:30;;;;;;;0.30;0.30;;;;;;;5.59;100.00;101628.25;5108899;28;20505;-60
2023/12/16 00:44:58;;;;;;;0.40;0.40;;;;;;;5.55;100.00;101626.88;5092519;28;20047;-60
2023/12/16 00:47:26;;;;;;;0.50;0.50;;;;;;;5.57;100.00;101618.75;5104548;28;20035;-60
2023/12/16 00:49:53;;;;;;;0.45;0.45;;;;;;;5.59;100.00;101616.75;5102120;28;20436;-60
2023/12/16 00:52:21;;;;;;;0.40;0.40;;;;;;;5.55;100.00;101616.22;5102125;28;20051;-60
2023/12/16 00:54:48;;;;;;;0.30;0.30;;;;;;;5.54;100.00;101619.03;5103692;28;20082;-60
2023/12/16 00:57:15;;;;;;;0.40;0.40;;;;;;;5.58;100.00;101618.56;5102233;28;20068;-58
2023/12/16 00:59:44;;;;;;;0.50;0.50;;;;;;;5.50;100.00;101618.50;5105081;28;20327;-60
2023/12/16 01:02:12;;;;;;;0.40;0.40;;;;;;;5.55;100.00;101616.22;5104617;28;20044;-58
2023/12/16 01:04:39;;;;;;;0.50;0.50;;;;;;;5.53;100.00;101617.34;5095766;28;20051;-58
2023/12/16 01:07:09;;;;;;;0.30;0.30;;;;;;;5.54;100.00;101619.03;5079685;28;20047;-58
2023/12/16 01:09:37;;;;;;;0.40;0.40;;;;;;;5.55;100.00;101610.06;5100047;28;20717;-59
2023/12/16 01:12:05;;;;;;;0.40;0.40;;;;;;;5.53;100.00;101609.38;5100075;28;20044;-58
2023/12/16 01:14:32;;;;;;;0.40;0.40;;;;;;;5.57;100.00;101606.28;5097576;28;20051;-58
2023/12/16 01:17:02;;;;;;;0.40;0.40;;;;;;;5.60;100.00;101610.44;5087041;28;20060;-58
2023/12/16 01:19:31;;;;;;;0.47;0.47;;;;;;;5.60;100.00;101608.63;5106339;28;20059;-58
2023/12/16 01:21:58;;;;;;;0.50;0.50;;;;;;;5.61;100.00;101607.63;5090285;28;20048;-58
2023/12/16 01:24:26;;;;;;;0.50;0.50;;;;;;;5.67;100.00;101610.69;5091763;28;20063;-58
2023/12/16 01:26:53;;;;;;;0.40;0.40;;;;;;;5.66;100.00;101620.47;5083403;28;20051;-58
2023/12/16 01:29:21;;;;;;;0.35;0.35;;;;;;;5.63;100.00;101629.59;5073451;28;20047;-60
2023/12/16 01:31:48;;;;;;;0.30;0.30;;;;;;;5.60;100.00;101619.25;5095716;28;20130;-60
2023/12/16 01:34:15;;;;;;;0.40;0.40;;;;;;;5.59;100.00;101627.38;5084414;28;20140;-59
2023/12/16 01:36:44;;;;;;;0.40;0.40;;;;;;;5.65;100.00;101626.78;5090001;28;20499;-59
2023/12/16 01:39:11;;;;;;;0.40;0.40;;;;;;;5.53;100.00;101633.31;5093725;28;20801;-60
2023/12/16 01:41:38;;;;;;;0.40;0.40;;;;;;;5.47;100.00;101625.97;5089908;28;20125;-60
2023/12/16 01:44:05;;;;;;;0.40;0.40;;;;;;;5.50;100.00;101628.31;5087269;28;20044;-59
2023/12/16 01:46:35;;;;;;;0.40;0.40;;;;;;;5.53;100.00;101633.31;5080622;28;20040;-60
2023/12/16 01:49:02;;;;;;;0.45;0.45;;;;;;;5.53;100.00;101633.31;5087863;28;20036;-59
2023/12/16 01:51:29;;;;;;;0.40;0.40;;;;;;;5.47;100.00;101639.25;5088026;28;20047;-60
2023/12/16 01:53:58;;;;;;;0.35;0.35;;;;;;;5.54;100.00;101646.47;5092590;28;20135;-58
2023/12/16 01:56:26;;;;;;;0.30;0.30;;;;;;;5.49;100.00;101651.41;5071239;28;20369;-60
2023/12/16 01:58:53;;;;;;;0.40;0.40;;;;;;;5.42;100.00;101647.69;5085206;28;20040;-58
2023/12/16 02:01:21;;;;;;;0.40;0.40;;;;;;;5.43;100.00;101659.16;5085139;28;20419;-60
2023/12/16 02:03:48;;;;;;;0.47;0.47;;;;;;;5.42;100.00;101658.31;5085393;28;20260;-61
2023/12/16 02:06:15;;;;;;;0.50;0.50;;;;;;;5.47;100.00;101660.53;5086247;28;20407;-60
2023/12/16 02:08:43;;;;;;;0.40;0.40;;;;;;;5.40;100.00;101655.78;5086739;28;20462;-60
2023/12/16 02:11:12;;;;;;;0.30;0.30;;;;;;;5.50;100.00;101662.88;5088795;28;20052;-60
2023/12/16 02:13:39;;;;;;;0.30;0.30;;;;;;;5.47;100.00;101663.19;5087690;28;20059;-59
2023/12/16 02:16:07;;;;;;;0.40;0.40;;;;;;;5.46;100.00;101658.84;5088214;28;20123;-60
2023/12/16 02:18:34;;;;;;;0.40;0.40;;;;;;;5.44;100.00;101656.31;5059717;28;20889;-58
2023/12/16 02:21:01;;;;;;;0.40;0.40;;;;;;;5.43;100.00;101662.63;5091428;28;20048;-58
2023/12/16 02:23:29;;;;;;;0.40;0.40;;;;;;;5.34;100.00;101661.72;5091966;28;20757;-57
2023/12/16 02:25:57;;;;;;;0.40;0.40;;;;;;;5.44;100.00;101660.81;5090930;28;20067;-60
2023/12/16 02:28:24;;;;;;;0.30;0.30;;;;;;;5.49;100.00;101658.53;5090086;28;20061;-60
2023/12/16 02:30:51;;;;;;;0.40;0.40;;;;;;;5.49;100.00;101666.53;5090080;28;20535;-60
2023/12/16 02:33:18;;;;;;;0.35;0.35;;;;;;;5.45;100.00;101658.00;5088788;28;20050;-61
2023/12/16 02:35:45;;;;;;;0.40;0.40;;;;;;;5.50;100.00;101650.41;5088089;28;20040;-60
2023/12/16 02:38:12;;;;;;;0.40;0.40;;;;;;;5.49;100.00;101658.53;5085262;28;20510;-60
2023/12/16 02:40:42;;;;;;;0.43;0.43;;;;;;;5.48;100.00;101659.53;5091497;28;20359;-59
2023/12/16 02:43:09;;;;;;;0.47;0.47;;;;;;;5.51;100.00;101657.41;5087010;28;20130;-60
2023/12/16 02:45:36;;;;;;;0.45;0.45;;;;;;;5.50;100.00;101665.56;5085713;28;20050;-60
2023/12/16 02:48:04;;;;;;;0.50;0.50;;;;;;;5.47;100.00;101661.38;5087941;28;20040;-58
2023/12/16 02:50:31;;;;;;;0.40;0.40;;;;;;;5.50;100.00;101657.56;5087085;28;20631;-60
2023/12/16 02:52:58;;;;;;;0.35;0.35;;;;;;;5.45;100.00;101666.00;5068144;28;20534;-59
2023/12/16 02:55:25;;;;;;;0.40;0.40;;;;;;;5.46;100.00;101650.88;5089200;28;20055;-60
2023/12/16 02:57:53;;;;;;;0.50;0.50;;;;;;;5.52;100.00;101652.94;5083485;28;20526;-60
2023/12/16 03:00:20;;;;;;;0.40;0.40;;;;;;;5.50;100.00;101655.75;5087773;28;20039;-60
2023/12/16 03:02:48;;;;;;;0.30;0.30;;;;;;;5.48;100.00;101659.53;5091181;28;20040;-60
2023/12/16 03:05:15;;;;;;;0.40;0.40;;;;;;;5.51;100.00;101662.72;5088528;28;20051;-59
2023/12/16 03:07:42;;;;;;;0.47;0.47;;;;;;;5.50;100.00;101670.88;5089594;28;20370;-58
2023/12/16 03:10:09;;;;;;;0.30;0.30;;;;;;;5.49;100.00;101664.72;5088396;28;20055;-58
2023/12/16 03:12:36;;;;;;;0.50;0.50;;;;;;;5.54;100.00;101661.59;5070698;28;20121;-58
2023/12/16 03:15:07;;;;;;;0.40;0.40;;;;;;;5.51;100.00;101667.22;5079643;28;20055;-58
2023/12/16 03:17:34;;;;;;;0.30;0.30;;;;;;;5.50;100.00;101665.56;5090270;28;20646;-61
2023/12/16 03:20:03;;;;;;;0.47;0.47;;;;;;;5.61;99.17;101673.31;5094121;28;20039;-60
2023/12/16 03:22:30;;;;;;;0.32;0.32;;;;;;;5.59;97.90;101664.63;5088912;28;20047;-60
2023/12/16 03:24:57;;;;;;;0.50;0.50;;;;;;;5.57;97.62;101674.59;5085641;28;20550;-59
2023/12/16 03:27:24;;;;;;;0.35;0.35;;;;;;;5.58;98.07;101679.75;5090375;28;20043;-60
2023/12/16 03:29:53;;;;;;;0.40;0.40;;;;;;;5.52;99.25;101676.88;5087595;28;20040;-59
2023/12/16 03:32:21;;;;;;;0.40;0.40;;;;;;;5.30;100.00;101675.47;5090574;28;20513;-60
2023/12/16 03:34:48;;;;;;;0.30;0.30;;;;;;;5.35;100.00;101674.03;5091835;28;20043;-59
2023/12/16 03:37:15;;;;;;;0.50;0.50;;;;;;;5.29;100.00;101676.44;5082934;28;20055;-60
2023/12/16 03:39:42;;;;;;;0.40;0.40;;;;;;;5.25;100.00;101678.56;5086384;28;20675;-59
2023/12/16 03:42:09;;;;;;;0.32;0.32;;;;;;;5.36;100.00;101669.53;5090768;28;20039;-58
2023/12/16 03:44:37;;;;;;;0.50;0.50;;;;;;;5.49;100.00;101669.19;5080994;28;20687;-59
2023/12/16 03:47:04;;;;;;;0.30;0.30;;;;;;;5.49;98.68;101663.84;5084891;28;20044;-59
2023/12/16 03:49:32;;;;;;;0.40;0.40;;;;;;;5.48;98.96;101657.72;5088523;28;20048;-58
2023/12/16 03:52:00;;;;;;;0.40;0.40;;;;;;;5.47;98.26;101655.22;5085768;28;20047;-59
2023/12/16 03:54:27;;;;;;;0.40;0.40;;;;;;;5.47;98.54;101644.56;5080883;28;20040;-58
2023/12/16 03:56:54;;;;;;;0.40;0.40;;;;;;;5.46;97.90;101650.88;5084420;28;20047;-59
2023/12/16 03:59:21;;;;;;;0.30;0.30;;;;;;;5.46;97.80;101640.22;5086576;28;20059;-59
2023/12/16 04:01:48;;;;;;;0.40;0.40;;;;;;;5.44;97.42;101650.16;5081826;28;20622;-59
2023/12/16 04:04:15;;;;;;;0.40;0.40;;;;;;;5.49;96.68;101663.84;5087303;28;20165;-61
2023/12/16 04:06:46;;;;;;;0.40;0.40;;;;;;;5.53;97.29;101662.59;5078618;28;20430;-59
2023/12/16 04:09:13;;;;;;;0.40;0.40;;;;;;;5.48;97.27;101659.53;5089640;28;20135;-59
2023/12/16 04:11:46;;;;;;;0.38;0.38;;;;;;;5.46;96.54;101664.16;5086742;28;20138;-59
2023/12/16 04:14:13;;;;;;;0.40;0.40;;;;;;;5.46;97.53;101659.69;5089871;28;20051;-59
2023/12/16 04:16:41;;;;;;;0.30;0.30;;;;;;;5.39;98.12;101664.78;5090179;28;20495;-59
2023/12/16 04:19:08;;;;;;;0.40;0.40;;;;;;;5.39;98.64;101663.91;5083828;28;20122;-59
2023/12/16 04:21:37;;;;;;;0.50;0.50;;;;;;;5.37;98.18;101669.41;5086889;28;20084;-59
2023/12/16 04:24:04;;;;;;;0.43;0.43;;;;;;;5.36;99.46;101665.03;5087585;28;20119;-58
2023/12/16 04:26:32;;;;;;;0.40;0.40;;;;;;;5.34;99.71;101671.50;5068062;28;20481;-58
2023/12/16 04:28:59;;;;;;;0.30;0.30;;;;;;;5.39;99.68;101670.09;5074523;28;20352;-58
2023/12/16 04:31:26;;;;;;;0.30;0.30;;;;;;;5.33;100.00;101676.00;5065922;28;20387;-58
2023/12/16 04:33:55;;;;;;;0.40;0.40;;;;;;;5.26;100.00;101674.06;5076490;28;20374;-58
2023/12/16 04:36:22;;;;;;;0.40;0.40;;;;;;;5.32;98.53;101674.31;5083648;28;20488;-61
2023/12/16 04:38:49;;;;;;;0.47;0.47;;;;;;;5.31;97.43;101664.66;5086005;28;20301;-58
2023/12/16 04:41:18;;;;;;;0.50;0.50;;;;;;;5.37;97.04;101668.56;5090404;28;20112;-59
2023/12/16 04:43:45;;;;;;;0.40;0.40;;;;;;;5.41;95.06;101668.09;5080629;28;20077;-59
2023/12/16 04:46:13;;;;;;;0.30;0.30;;;;;;;5.44;92.77;101666.13;5090408;28;20098;-59
2023/12/16 04:48:40;;;;;;;0.45;0.45;;;;;;;5.47;92.55;101676.50;5079303;28;20044;-58
2023/12/16 04:51:07;;;;;;;0.40;0.40;;;;;;;5.49;92.50;101674.50;5086992;28;20036;-58
2023/12/16 04:53:35;;;;;;;0.40;0.40;;;;;;;5.49;91.04;101669.19;5087206;28;20044;-60
2023/12/16 04:56:02;;;;;;;0.40;0.40;;;;;;;5.50;89.94;101673.53;5091147;28;20047;-59
2023/12/16 04:58:30;;;;;;;0.38;0.38;;;;;;;5.49;90.32;101667.38;5084743;28;20040;-61
2023/12/16 05:00:58;;;;;;;0.30;0.30;;;;;;;5.49;90.74;101666.53;5080155;28;20572;-58
2023/12/16 05:03:25;;;;;;;0.30;0.30;;;;;;;5.45;93.64;101678.47;5095803;28;20402;-57
2023/12/16 05:05:52;;;;;;;0.45;0.45;;;;;;;5.43;95.20;101675.94;5091384;28;20044;-58
2023/12/16 05:08:20;;;;;;;0.38;0.38;;;;;;;5.47;93.07;101679.16;5084663;28;20578;-58
2023/12/16 05:10:47;;;;;;;0.40;0.40;;;;;;;5.40;92.97;101674.41;5087506;28;20150;-58
2023/12/16 05:13:14;;;;;;;0.40;0.40;;;;;;;5.43;93.47;101685.75;5079149;28;20434;-60
2023/12/16 05:15:44;;;;;;;0.40;0.40;;;;;;;5.36;92.40;101678.34;5077485;28;20621;-58
2023/12/16 05:18:11;;;;;;;0.50;0.50;;;;;;;5.36;92.12;101680.19;5089233;28;20044;-60
2023/12/16 05:20:38;;;;;;;0.50;0.50;;;;;;;5.33;93.07;101676.00;5081665;28;20047;-60
2023/12/16 05:23:06;;;;;;;0.50;0.50;;;;;;;5.34;93.97;101683.00;5076468;28;20561;-60
2023/12/16 05:25:33;;;;;;;0.50;0.50;;;;;;;5.27;93.92;101676.59;5072076;28;20045;-59
2023/12/16 05:28:00;;;;;;;0.40;0.40;;;;;;;5.29;94.90;101685.28;5095141;28;20055;-60
2023/12/16 05:30:29;;;;;;;0.40;0.40;;;;;;;5.35;94.87;101683.84;5086364;28;20056;-59
2023/12/16 05:32:57;;;;;;;0.40;0.40;;;;;;;5.35;94.02;101682.00;5086497;28;20132;-59
2023/12/16 05:35:24;;;;;;;0.43;0.43;;;;;;;5.32;95.18;101684.13;5079890;28;20693;-59
2023/12/16 05:37:52;;;;;;;0.40;0.40;;;;;;;5.19;97.18;101687.09;5085592;28;20150;-59
2023/12/16 05:40:19;;;;;;;0.30;0.30;;;;;;;5.18;97.23;101688.09;5092287;28;20056;-59
2023/12/16 05:42:48;;;;;;;0.35;0.35;;;;;;;5.11;100.00;101687.84;5087396;28;20056;-59
2023/12/16 05:45:16;;;;;;;0.43;0.43;;;;;;;4.87;100.00;101696.34;5070369;28;20073;-59
2023/12/16 05:47:43;;;;;;;0.40;0.40;;;;;;;4.94;100.00;101702.75;5091775;28;20048;-59
2023/12/16 05:50:11;;;;;;;0.30;0.30;;;;;;;4.90;100.00;101705.84;5084173;28;20044;-60
2023/12/16 05:52:39;;;;;;;0.40;0.40;;;;;;;4.88;100.00;101703.31;5090884;28;20047;-59
2023/12/16 05:55:07;;;;;;;0.50;0.50;;;;;;;4.82;100.00;101708.38;5082452;28;20912;-59
2023/12/16 05:57:34;;;;;;;0.50;0.50;;;;;;;4.79;100.00;101704.19;5085310;28;20517;-59
2023/12/16 06:00:01;;;;;;;0.43;0.43;;;;;;;4.91;100.00;101708.34;5087136;28;20420;-64
2023/12/16 06:02:31;;;;;;;0.50;0.50;;;;;;;4.86;100.00;101704.44;5084910;28;20493;-59
2023/12/16 06:04:58;;;;;;;0.40;0.40;;;;;;;4.89;100.00;101707.69;5087429;28;20055;-60
2023/12/16 06:07:30;;;;;;;0.40;0.40;;;;;;;4.94;100.00;101713.41;5090241;28;20043;-59
2023/12/16 06:09:57;;;;;;;0.40;0.40;;;;;;;4.97;100.00;101715.75;5088694;28;20128;-59
2023/12/16 06:12:26;;;;;;;0.30;0.30;;;;;;;4.87;100.00;101722.94;5093951;28;20062;-59
2023/12/16 06:14:54;;;;;;;0.43;0.43;;;;;;;4.89;100.00;101720.97;5091714;28;20043;-60
2023/12/16 06:17:21;;;;;;;0.40;0.40;;;;;;;4.87;100.00;101720.25;5086437;28;20533;-59
2023/12/16 06:19:48;;;;;;;0.50;0.50;;;;;;;4.89;100.00;101718.31;5087344;28;20469;-59
2023/12/16 06:22:15;;;;;;;0.50;0.50;;;;;;;4.90;100.00;101722.63;5066014;28;20052;-59
2023/12/16 06:24:47;;;;;;;0.60;0.60;;;;;;;4.92;100.00;101712.69;5089402;28;20439;-59
2023/12/16 06:27:14;;;;;;;0.47;0.47;;;;;;;4.88;100.00;101719.28;5069023;28;20101;-59
2023/12/16 06:29:41;;;;;;;0.50;0.50;;;;;;;4.83;100.00;101732.16;5064112;28;20978;-59
2023/12/16 06:32:11;;;;;;;0.40;0.40;;;;;;;4.86;100.00;101721.22;5097122;28;20047;-59
2023/12/16 06:34:38;;;;;;;;;;;;;;;4.88;100.00;101719.28;5091231;28;20048;-57
2023/12/16 06:37:05;;;;;;;0.40;0.40;;;;;;;4.95;100.00;101715.06;5088008;28;20284;-60
2023/12/16 06:39:33;;;;;;;0.40;0.40;;;;;;;4.96;100.00;101713.22;5083350;28;20048;-60
2023/12/16 06:42:02;;;;;;;0.40;0.40;;;;;;;5.02;100.00;101714.47;5086174;28;20500;-60
2023/12/16 06:44:29;;;;;;;0.40;0.40;;;;;;;5.02;100.00;101703.84;5082683;28;20052;-60
2023/12/16 06:46:56;;;;;;;0.40;0.40;;;;;;;5.00;100.00;101708.47;5078339;28;20444;-60
2023/12/16 06:49:23;;;;;;;0.45;0.45;;;;;;;4.98;100.00;101704.13;5083679;28;20055;-60
2023/12/16 06:51:51;;;;;;;0.40;0.40;;;;;;;5.01;100.00;101696.84;5070279;28;20155;-60
2023/12/16 06:54:18;;;;;;;0.30;0.30;;;;;;;4.95;100.00;101707.09;5073710;28;20071;-60
2023/12/16 06:56:46;;;;;;;0.45;0.45;;;;;;;5.00;100.00;101700.50;5085060;28;20044;-58
2023/12/16 06:59:18;;;;;;;0.40;0.40;;;;;;;4.96;100.00;101718.53;5090092;28;20474;-60
2023/12/16 07:01:46;;;;;;;0.50;0.50;;;;;;;4.91;100.00;101724.28;5087650;28;20047;-59
2023/12/16 07:04:13;;;;;;;0.45;0.45;;;;;;;4.94;100.00;101721.38;5088932;28;20940;-59
2023/12/16 07:06:41;;;;;;;0.50;0.50;;;;;;;4.92;100.00;101727.81;5086541;28;20067;-59
2023/12/16 07:09:08;;;;;;;0.40;0.40;;;;;;;4.85;100.00;101716.06;5086463;28;20122;-59
2023/12/16 07:11:35;;;;;;;0.50;0.50;;;;;;;4.83;100.00;101713.56;5092653;28;20051;-59
2023/12/16 07:14:03;;;;;;;0.40;0.40;;;;;;;4.79;100.00;101717.47;5086067;28;20059;-60
2023/12/16 07:16:31;;;;;;;0.40;0.40;;;;;;;4.80;100.00;101705.88;5084697;28;20092;-60
2023/12/16 07:18:59;;;;;;;0.50;0.50;;;;;;;4.79;100.00;101706.00;5085203;28;20039;-59
2023/12/16 07:21:27;;;;;;;0.40;0.40;;;;;;;4.80;100.00;101699.72;5082584;28;20040;-59
2023/12/16 07:23:54;;;;;;;0.40;0.40;;;;;;;4.83;100.00;101694.94;5089860;28;20709;-59
2023/12/16 07:26:21;;;;;;;0.45;0.45;;;;;;;4.83;100.00;101692.28;5087717;28;20043;-59
2023/12/16 07:28:50;;;;;;;0.50;0.50;;;;;;;4.90;100.00;101701.38;5089279;28;20054;-59
2023/12/16 07:31:17;;;;;;;0.60;0.60;;;;;;;4.81;100.00;101701.38;5069713;28;20052;-60
2023/12/16 07:33:45;;;;;;;0.40;0.40;;;;;;;4.76;100.00;101691.19;5082700;28;20035;-60
2023/12/16 07:36:12;;;;;;;0.47;0.47;;;;;;;4.72;100.00;101692.47;5069464;28;20134;-60
2023/12/16 07:38:40;;;;;;;0.50;0.50;;;;;;;4.72;100.00;101688.00;5065807;28;20043;-59
2023/12/16 07:41:07;;;;;;;0.35;0.35;;;;;;;4.68;100.00;101694.56;5084310;28;20040;-60
2023/12/16 07:43:34;;;;;;;0.40;0.40;;;;;;;4.62;100.00;101696.94;5087449;28;20050;-60
2023/12/16 07:46:03;;;;;;;0.55;0.55;;;;;;;4.59;100.00;101702.56;5091659;28;20047;-60
2023/12/16 07:48:30;;;;;;;0.35;0.35;;;;;;;4.70;100.00;101699.75;5082761;28;20443;-60
2023/12/16 07:50:58;;;;;;;0.55;0.55;;;;;;;4.62;100.00;101707.56;5088815;28;20101;-59
2023/12/16 07:53:26;;;;;;;0.45;0.45;;;;;;;4.69;100.00;101709.53;5085855;28;20040;-59
2023/12/16 07:55:53;;;;;;;0.47;0.47;;;;;;;4.66;100.00;101711.63;5092584;28;20117;-59
2023/12/16 07:58:20;;;;;;;0.40;0.40;;;;;;;4.62;100.00;101710.22;5089253;28;20128;-59
2023/12/16 08:00:48;;;;;;;0.50;0.50;;;;;;;4.68;100.00;101712.34;5076581;28;20627;-59
2023/12/16 08:03:17;;;;;;;0.40;0.40;;;;;;;4.70;100.00;101726.31;5067372;28;20051;-59
2023/12/16 08:05:46;;;;;;;0.52;0.52;;;;;;;4.73;100.00;101726.03;5066025;28;20044;-59
2023/12/16 08:08:15;;;;;;;0.45;0.45;;;;;;;4.78;100.00;101723.78;5089988;28;20525;-59
2023/12/16 08:10:45;;;;;;;0.50;0.50;;;;;;;4.84;100.00;101739.16;5081393;28;20141;-59
2023/12/16 08:13:13;;;;;;;0.50;0.50;;;;;;;4.82;100.00;101740.25;5084721;28;20638;-59
2023/12/16 08:15:40;;;;;;;0.50;0.50;;;;;;;4.86;100.00;101744.31;5075227;28;20028;-58
2023/12/16 08:18:09;;;;;;;0.50;0.50;;;;;;;4.95;100.00;101744.28;5088468;28;20040;-59
2023/12/16 08:20:36;;;;;;;0.50;0.50;;;;;;;4.88;100.00;101748.50;5083149;28;20121;-59
2023/12/16 08:23:05;;;;;;;0.40;0.40;;;;;;;4.90;100.00;101754.53;5090734;28;20131;-59
2023/12/16 08:25:35;;;;;;;0.40;0.40;;;;;;;4.92;100.00;101752.56;5085334;28;20057;-59
2023/12/16 08:28:02;;;;;;;0.30;0.30;;;;;;;4.98;100.00;101749.31;5088971;28;20450;-59
2023/12/16 08:30:29;;;;;;;0.43;0.43;;;;;;;5.02;100.00;101751.69;5092395;28;20044;-59
2023/12/16 08:32:56;;;;;;;0.50;0.50;;;;;;;5.06;100.00;101753.91;5088599;28;20181;-59
2023/12/16 08:35:23;;;;;;;0.40;0.40;;;;;;;5.04;100.00;101750.59;5094168;28;20054;-59
2023/12/16 08:37:50;;;;;;;0.40;0.40;;;;;;;5.16;100.00;101759.19;5089143;28;20386;-59
2023/12/16 08:40:17;;;;;;;0.40;0.40;;;;;;;5.29;100.00;101756.19;5089178;28;20424;-59
2023/12/16 08:42:46;;;;;;;0.40;0.40;;;;;;;5.41;100.00;101753.22;5093916;28;20472;-59
2023/12/16 08:45:14;;;;;;;0.50;0.50;;;;;;;5.52;100.00;101743.38;5093646;28;20059;-59
2023/12/16 08:47:42;;;;;;;0.40;0.40;;;;;;;5.55;100.00;101753.72;5091514;28;20513;-59
2023/12/16 08:50:09;;;;;;;0.40;0.40;;;;;;;5.50;100.00;101748.00;5099056;28;20524;-59
2023/12/16 08:52:36;;;;;;;0.47;0.47;;;;;;;5.58;100.00;101753.41;5090961;28;20144;-59
2023/12/16 08:55:04;;;;;;;0.40;0.40;;;;;;;5.67;100.00;101757.88;5085102;28;20488;-59
2023/12/16 08:57:31;;;;;;;0.45;0.45;;;;;;;5.68;100.00;101748.88;5093294;28;20446;-59
2023/12/16 09:00:02;;;;;;;0.50;0.50;;;;;;;5.72;100.00;101752.94;5089951;28;20235;-59
2023/12/16 09:02:31;;;;;;;;;;;;;;;5.70;100.00;101754.91;5090677;28;20051;-59
2023/12/16 09:04:58;;;;;;;0.35;0.35;;;;;;;5.68;100.00;101754.19;5093151;28;20049;-59
2023/12/16 09:07:25;;;;;;;0.40;0.40;;;;;;;5.73;100.00;101764.41;5089891;28;20475;-59
2023/12/16 09:09:52;;;;;;;0.50;0.50;;;;;;;5.66;100.00;101772.13;5090938;28;20071;-59
2023/12/16 09:12:19;;;;;;;0.50;0.50;;;;;;;5.69;100.00;101782.50;5093665;28;20059;-60
2023/12/16 09:14:46;;;;;;;0.50;0.50;;;;;;;5.78;100.00;101776.28;5091358;28;20370;-59
2023/12/16 09:17:18;;;;;;;0.35;0.35;;;;;;;5.78;100.00;101786.91;5092879;28;20148;-59
2023/12/16 09:19:45;;;;;;;0.50;0.50;;;;;;;5.80;100.00;101787.63;5081163;28;20044;-59
2023/12/16 09:22:12;;;;;;;0.30;0.30;;;;;;;5.82;100.00;101793.63;5088482;28;20476;-59
2023/12/16 09:24:40;;;;;;;0.38;0.38;;;;;;;5.86;100.00;101798.66;5089792;28;20343;-59
2023/12/16 09:27:08;;;;;;;0.50;0.50;;;;;;;5.91;100.00;101796.38;5092784;28;20458;-59
2023/12/16 09:29:35;;;;;;;0.50;0.50;;;;;;;5.93;100.00;101800.56;5071564;28;20530;-59
2023/12/16 09:32:03;;;;;;;0.40;0.40;;;;;;;6.15;100.00;101814.50;5086168;28;20058;-59
2023/12/16 09:34:32;;;;;;;0.40;0.40;;;;;;;6.21;100.00;101813.88;5077775;28;20050;-59
2023/12/16 09:36:59;;;;;;;0.32;0.32;;;;;;;6.10;100.00;101819.44;5089586;28;20044;-59
2023/12/16 09:39:26;;;;;;;0.40;0.40;;;;;;;6.29;100.00;101815.78;5084671;28;20072;-59
2023/12/16 09:41:56;;;;;;;0.30;0.30;;;;;;;6.39;100.00;101821.88;5088176;28;20039;-59
2023/12/16 09:44:23;;;;;;;0.40;0.40;;;;;;;6.46;100.00;101814.94;5090426;28;20095;-59
2023/12/16 09:46:50;;;;;;;0.30;0.30;;;;;;;6.52;100.00;101816.19;5092082;28;20158;-59
2023/12/16 09:49:17;;;;;;;0.40;0.40;;;;;;;6.65;100.00;101812.13;5086341;28;20042;-59
2023/12/16 09:51:45;;;;;;;0.40;0.40;;;;;;;6.65;99.11;101804.13;5091857;28;20063;-59
2023/12/16 09:54:15;;;;;;;0.40;0.40;;;;;;;6.67;98.01;101812.81;5085379;28;20101;-59
2023/12/16 09:56:44;;;;;;;0.25;0.25;;;;;;;6.72;96.67;101800.88;5085202;28;20428;-59
2023/12/16 09:59:11;;;;;;;0.40;0.40;;;;;;;7.04;96.12;101806.44;5087740;28;20051;-59
2023/12/16 10:01:38;;;;;;;0.40;0.40;;;;;;;7.87;89.17;101811.22;5073525;28;20067;-59
2023/12/16 10:04:05;;;;;;;0.35;0.35;;;;;;;7.60;89.96;101800.75;5086717;28;20468;-59
2023/12/16 10:06:32;;;;;;;0.30;0.30;;;;;;;7.75;89.89;101804.47;5090191;28;20097;-59
2023/12/16 10:09:01;;;;;;;0.30;0.30;;;;;;;8.22;88.02;101809.31;5088519;28;20055;-59
2023/12/16 10:11:28;;;;;;;0.30;0.30;;;;;;;8.40;85.47;101810.03;5074539;28;20378;-59
2023/12/16 10:13:56;;;;;;;0.32;0.32;;;;;;;8.80;82.18;101810.22;5081944;28;20097;-59
2023/12/16 10:16:24;;;;;;;0.40;0.40;;;;;;;8.78;82.02;101818.38;5094458;28;20059;-59
2023/12/16 10:18:52;;;;;;;0.30;0.30;;;;;;;9.56;77.87;101811.59;5088291;28;20058;-59
2023/12/16 10:21:21;;;;;;;0.40;0.40;;;;;;;10.26;75.26;101809.88;5094387;28;20045;-59
2023/12/16 10:23:48;;;;;;;0.30;0.30;;;;;;;10.32;73.72;101803.88;5085921;28;20134;-59
2023/12/16 10:26:17;;;;;;;0.30;0.30;;;;;;;10.63;72.23;101813.69;5065420;28;20070;-59
2023/12/16 10:28:46;;;;;;;0.20;0.20;;;;;;;10.37;72.50;101806.84;5090836;28;20424;-60
2023/12/16 10:31:15;;;;;;;0.23;0.23;;;;;;;10.79;70.28;101813.56;5086789;28;20063;-59
2023/12/16 10:33:42;;;;;;;0.30;0.30;;;;;;;10.60;70.24;101814.88;5083799;28;20331;-59
2023/12/16 10:36:10;;;;;;;0.25;0.25;;;;;;;10.70;69.95;101806.59;5082477;28;20366;-59
2023/12/16 10:38:37;;;;;;;0.20;0.20;;;;;;;10.56;70.19;101803.69;5067231;28;20071;-59
2023/12/16 10:41:05;;;;;;;0.20;0.20;;;;;;;10.31;69.34;101799.53;5084131;28;20128;-59
2023/12/16 10:43:34;;;;;;;0.20;0.20;;;;;;;10.68;68.86;101795.19;5085824;28;20047;-59
2023/12/16 10:46:03;;;;;;;0.20;0.20;;;;;;;10.87;68.42;101781.28;5074254;28;20055;-59
2023/12/16 10:48:31;;;;;;;0.20;0.20;;;;;;;10.25;70.17;101784.09;5083307;28;20468;-59
2023/12/16 10:50:58;;;;;;;0.20;0.20;;;;;;;9.77;70.64;101783.38;5085584;28;20546;-59
2023/12/16 10:53:27;;;;;;;0.28;0.28;;;;;;;10.01;71.41;101779.72;5085318;28;20055;-59
2023/12/16 10:55:57;;;;;;;0.20;0.20;;;;;;;10.42;69.67;101776.81;5075352;28;20044;-58
2023/12/16 10:58:26;;;;;;;0.30;0.30;;;;;;;10.12;69.82;101772.13;5085913;28;20044;-59
2023/12/16 11:00:56;;;;;;;0.20;0.20;;;;;;;9.62;68.59;101770.72;5084603;28;20051;-59
2023/12/16 11:03:25;;;;;;;0.20;0.20;;;;;;;9.64;71.88;101768.72;5094772;28;20429;-58
2023/12/16 11:05:54;;;;;;;0.20;0.20;;;;;;;10.01;71.05;101769.88;5086096;28;20642;-58
2023/12/16 11:08:21;;;;;;;0.22;0.22;;;;;;;10.07;70.76;101771.00;5084713;28;20066;-58
2023/12/16 11:10:48;;;;;;;0.22;0.22;;;;;;;10.00;72.92;101773.53;5080254;28;20052;-58
2023/12/16 11:13:17;;;;;;;0.30;0.30;;;;;;;10.35;71.50;101771.34;5089120;28;20048;-60
2023/12/16 11:15:46;;;;;;;0.20;0.20;;;;;;;9.77;73.04;101770.00;5084920;28;20055;-59
2023/12/16 11:18:17;;;;;;;0.20;0.20;;;;;;;9.87;72.88;101755.38;5087689;28;20055;-60
2023/12/16 11:20:45;;;;;;;0.30;0.30;;;;;;;9.84;72.34;101754.91;5084784;28;20800;-60
2023/12/16 11:23:15;;;;;;;0.30;0.30;;;;;;;9.76;72.63;101752.25;5088414;28;20048;-60
2023/12/16 11:25:45;;;;;;;0.20;0.20;;;;;;;9.52;73.21;101754.03;5086085;28;20097;-60
2023/12/16 11:28:14;;;;;;;0.30;0.30;;;;;;;9.44;75.62;101754.91;5085993;28;20133;-59